Terminal Aerodrome Forecast
Issued by NWS

Home | Current Version | Previous Version | Graphics & Text | Print | Product List | Glossary On
Versions: 1 2 3 4 5 6 7 8 9 10 11 12 13 14 15 16 17 18 19 20 21 22 23
000
FTUS43 KMPX 201121
TAFAXN
TAF
KAXN 201121Z 2012/2112 15009KT 1SM BR VV002
     FM201800 13007KT 2SM BR OVC005
     FM210000 11005KT 1SM -DZ BR OVC003
     FM210300 11007KT 1/2SM FG OVC002=

USA.gov is the U.S. government's official web portal to all federal, state and local government web resources and services.